createdAt,value
2018-07-19T00:00:32.019Z,5.83
2018-07-19T00:03:01.198Z,5.67
2018-07-19T00:05:30.480Z,5.40
2018-07-19T00:07:59.419Z,5.60
2018-07-19T00:10:28.747Z,5.70
2018-07-19T00:12:57.867Z,4.80
2018-07-19T00:15:26.792Z,5.03
2018-07-19T00:17:56.096Z,5.10
2018-07-19T00:20:25.371Z,5.83
2018-07-19T00:22:54.571Z,5.43
2018-07-19T00:25:23.760Z,4.83
2018-07-19T00:27:52.609Z,5.67
2018-07-19T00:30:21.820Z,7.10
2018-07-19T00:32:50.716Z,4.77
2018-07-19T00:35:19.814Z,4.93
2018-07-19T00:37:48.944Z,4.67
2018-07-19T00:40:17.898Z,5.33
2018-07-19T00:42:47.147Z,4.80
2018-07-19T00:45:16.360Z,4.73
2018-07-19T00:47:45.525Z,4.77
2018-07-19T00:50:14.429Z,5.93
2018-07-19T00:52:43.662Z,4.90
2018-07-19T00:55:12.913Z,4.37
2018-07-19T00:57:41.869Z,4.30
2018-07-19T01:00:11.052Z,4.77
2018-07-19T01:02:40.051Z,5.67
2018-07-19T01:05:08.918Z,4.70
2018-07-19T01:07:38.022Z,4.00
2018-07-19T01:10:07.264Z,4.53
2018-07-19T01:12:36.406Z,7.73
2018-07-19T01:15:05.928Z,4.87
2018-07-19T01:17:34.889Z,4.73
2018-07-19T01:20:04.089Z,4.93
2018-07-19T01:22:33.205Z,6.00
2018-07-19T01:25:02.155Z,5.67
2018-07-19T01:27:31.515Z,5.60
2018-07-19T01:30:00.725Z,4.67
2018-07-19T01:32:29.575Z,4.37
2018-07-19T01:34:58.820Z,4.20
2018-07-19T01:37:28.010Z,4.17
2018-07-19T01:39:57.136Z,4.40
2018-07-19T01:42:32.774Z,3.90
2018-07-19T01:45:02.131Z,4.20
2018-07-19T01:47:31.263Z,4.33
2018-07-19T01:50:00.458Z,4.40
2018-07-19T01:52:29.623Z,4.23
2018-07-19T01:54:58.539Z,7.07
2018-07-19T01:57:27.866Z,4.23
2018-07-19T01:59:56.808Z,4.30
2018-07-19T02:02:25.939Z,3.97
2018-07-19T02:04:55.183Z,4.50
2018-07-19T02:07:24.440Z,4.23
2018-07-19T02:09:53.660Z,4.17
2018-07-19T02:12:22.505Z,4.00
2018-07-19T02:14:51.722Z,4.10
2018-07-19T02:17:20.550Z,4.33
2018-07-19T02:19:49.769Z,4.53
2018-07-19T02:22:19.002Z,4.40
2018-07-19T02:24:48.339Z,4.37
2018-07-19T02:27:17.234Z,4.10
2018-07-19T02:29:46.218Z,4.50
2018-07-19T02:32:15.526Z,4.53
2018-07-19T02:34:44.865Z,4.90
2018-07-19T02:37:14.202Z,4.50
2018-07-19T02:39:43.362Z,4.20
2018-07-19T02:42:12.500Z,4.60
2018-07-19T02:44:41.254Z,5.87
2018-07-19T02:47:10.138Z,6.50
2018-07-19T02:49:39.170Z,4.33
2018-07-19T02:52:08.487Z,4.17
2018-07-19T02:54:37.636Z,4.17
2018-07-19T02:57:06.912Z,3.97
2018-07-19T02:59:36.502Z,4.57
2018-07-19T03:02:05.695Z,4.40
2018-07-19T03:04:34.686Z,4.30
2018-07-19T03:07:03.949Z,4.40
2018-07-19T03:09:32.943Z,4.10
2018-07-19T03:12:02.107Z,4.33
2018-07-19T03:14:31.159Z,6.70
2018-07-19T03:17:00.034Z,7.10
2018-07-19T03:19:29.083Z,4.50
2018-07-19T03:21:58.089Z,5.30
2018-07-19T03:24:27.208Z,4.37
2018-07-19T03:26:56.259Z,4.43
2018-07-19T03:29:25.396Z,5.60
2018-07-19T03:31:54.608Z,5.83
2018-07-19T03:34:23.487Z,4.57
2018-07-19T03:36:52.633Z,4.97
2018-07-19T03:39:21.765Z,4.30
2018-07-19T03:41:50.937Z,5.13
2018-07-19T03:44:20.274Z,4.97
2018-07-19T03:46:49.428Z,5.37
2018-07-19T03:49:18.674Z,5.83
2018-07-19T03:51:47.773Z,4.63
2018-07-19T03:54:17.147Z,5.00
2018-07-19T03:56:46.205Z,5.20
2018-07-19T03:59:15.187Z,4.90
2018-07-19T04:01:44.252Z,4.83
2018-07-19T04:04:13.460Z,5.00
2018-07-19T04:06:42.577Z,4.30
2018-07-19T04:09:11.707Z,7.03
2018-07-19T04:11:40.489Z,6.70
2018-07-19T04:14:09.645Z,5.10
2018-07-19T04:16:38.802Z,5.20
2018-07-19T04:19:07.759Z,5.30
2018-07-19T04:21:36.894Z,5.13
2018-07-19T04:24:06.139Z,5.27
2018-07-19T04:26:35.468Z,4.90
2018-07-19T04:29:04.530Z,5.00
2018-07-19T04:31:33.734Z,4.77
2018-07-19T04:34:02.939Z,5.27
2018-07-19T04:36:32.073Z,4.60
2018-07-19T04:39:01.170Z,5.67
2018-07-19T04:41:30.441Z,6.67
2018-07-19T04:43:59.525Z,4.80
2018-07-19T04:46:28.764Z,5.17
2018-07-19T04:48:57.598Z,6.00
2018-07-19T04:51:26.791Z,4.57
2018-07-19T04:53:55.751Z,4.80
2018-07-19T04:56:24.767Z,4.70
2018-07-19T04:58:53.965Z,4.40
2018-07-19T05:01:23.304Z,5.23
2018-07-19T05:03:52.226Z,5.00
2018-07-19T05:06:21.383Z,5.63
2018-07-19T05:08:50.124Z,5.07
2018-07-19T05:11:19.387Z,4.83
2018-07-19T05:13:48.485Z,5.03
2018-07-19T05:16:17.790Z,8.93
2018-07-19T05:18:46.886Z,7.13
2018-07-19T05:21:16.135Z,4.60
2018-07-19T05:23:45.140Z,5.13
2018-07-19T05:26:14.078Z,5.70
2018-07-19T05:28:43.210Z,5.27
2018-07-19T05:31:12.354Z,5.80
2018-07-19T05:33:41.542Z,6.23
2018-07-19T05:36:11.050Z,5.13
2018-07-19T05:38:40.039Z,5.83
2018-07-19T05:41:09.292Z,4.97
2018-07-19T05:43:38.283Z,5.33
2018-07-19T05:46:07.591Z,5.40
2018-07-19T05:48:36.694Z,7.07
2018-07-19T05:51:06.037Z,5.50
2018-07-19T05:53:35.188Z,6.00
2018-07-19T05:56:04.424Z,5.50
2018-07-19T05:58:33.734Z,7.00
2018-07-19T06:01:02.455Z,6.47
2018-07-19T06:03:31.565Z,5.47
2018-07-19T06:06:00.768Z,6.10
2018-07-19T06:08:29.790Z,5.37
2018-07-19T06:10:58.877Z,5.33
2018-07-19T06:13:27.982Z,5.43
2018-07-19T06:15:57.181Z,5.07
2018-07-19T06:18:26.218Z,5.90
2018-07-19T06:20:55.444Z,5.30
2018-07-19T06:23:24.749Z,4.93
2018-07-19T06:25:54.067Z,4.80
2018-07-19T06:28:23.393Z,5.10
2018-07-19T06:30:52.520Z,5.40
2018-07-19T06:33:21.552Z,6.00
2018-07-19T06:35:50.746Z,6.27
2018-07-19T06:38:19.690Z,4.90
2018-07-19T06:40:48.958Z,7.83
2018-07-19T06:43:17.970Z,6.80
2018-07-19T06:45:47.291Z,7.00
2018-07-19T06:48:16.415Z,6.67
2018-07-19T06:50:45.522Z,6.83
2018-07-19T06:53:14.586Z,5.97
2018-07-19T06:55:43.873Z,5.00
2018-07-19T06:58:13.226Z,5.33
2018-07-19T07:00:41.986Z,4.77
2018-07-19T07:03:11.178Z,4.60
2018-07-19T07:05:40.264Z,4.80
2018-07-19T07:08:09.086Z,5.80
2018-07-19T07:10:38.190Z,4.90
2018-07-19T07:13:07.423Z,4.37
2018-07-19T07:15:36.337Z,4.67
2018-07-19T07:18:05.447Z,4.57
2018-07-19T07:20:34.316Z,5.87
2018-07-19T07:23:03.431Z,5.67
2018-07-19T07:25:41.998Z,3.43
2018-07-19T07:28:11.235Z,3.77
2018-07-19T07:30:40.363Z,5.47
2018-07-19T07:33:09.702Z,6.03
2018-07-19T07:35:38.931Z,3.43
2018-07-19T07:38:07.941Z,4.73
2018-07-19T07:40:37.301Z,6.90
2018-07-19T07:43:07.246Z,4.73
2018-07-19T07:45:36.532Z,8.97
2018-07-19T07:48:05.641Z,14.70
2018-07-19T07:50:34.890Z,22.93
2018-07-19T07:53:04.594Z,15.70
2018-07-19T07:55:33.901Z,10.13
2018-07-19T07:58:02.714Z,9.33
2018-07-19T08:00:31.927Z,7.90
2018-07-19T08:03:00.998Z,6.33
2018-07-19T08:05:30.182Z,5.47
2018-07-19T08:07:59.050Z,3.77
2018-07-19T08:10:27.936Z,4.97
2018-07-19T08:12:56.991Z,3.53
2018-07-19T08:15:26.138Z,4.80
2018-07-19T08:17:55.378Z,8.03
2018-07-19T08:20:24.252Z,6.80
2018-07-19T08:22:53.571Z,4.43
2018-07-19T08:25:22.763Z,4.13
2018-07-19T08:27:51.943Z,3.07
2018-07-19T08:30:20.998Z,4.27
2018-07-19T08:32:50.458Z,5.27
2018-07-19T08:35:19.702Z,4.60
2018-07-19T08:37:49.045Z,7.53
2018-07-19T08:40:17.862Z,6.73
2018-07-19T08:42:47.123Z,6.30
2018-07-19T08:45:16.030Z,5.10
2018-07-19T08:47:45.322Z,2.87
2018-07-19T08:50:14.481Z,4.07
2018-07-19T08:52:43.778Z,3.10
2018-07-19T08:55:12.823Z,3.73
2018-07-19T08:57:42.102Z,3.50
2018-07-19T09:00:11.292Z,4.07
2018-07-19T09:02:40.458Z,4.77
2018-07-19T09:05:09.702Z,5.23
2018-07-19T09:07:38.566Z,2.40
2018-07-19T09:10:07.546Z,2.80
2018-07-19T09:12:36.737Z,3.67
2018-07-19T09:15:06.055Z,6.47
2018-07-19T09:17:35.363Z,2.10
2018-07-19T09:20:04.496Z,2.30
2018-07-19T09:22:33.665Z,2.77
2018-07-19T09:25:02.420Z,6.53
2018-07-19T09:27:31.612Z,2.20
2018-07-19T09:30:00.754Z,1.90
2018-07-19T09:32:29.915Z,2.87
2018-07-19T09:34:59.037Z,3.40
2018-07-19T09:37:28.354Z,3.43
2018-07-19T09:39:57.475Z,2.10
2018-07-19T09:42:26.694Z,2.77
2018-07-19T09:44:55.940Z,2.77
2018-07-19T09:47:24.727Z,1.93
2018-07-19T09:49:53.900Z,3.03
2018-07-19T09:52:23.063Z,2.10
2018-07-19T09:54:57.632Z,2.07
2018-07-19T09:57:27.816Z,5.70
2018-07-19T09:59:56.854Z,1.90
2018-07-19T10:02:26.348Z,2.97
2018-07-19T10:04:55.366Z,2.17
2018-07-19T10:07:24.376Z,1.90
2018-07-19T10:09:53.581Z,1.93
2018-07-19T10:12:22.772Z,2.23
2018-07-19T10:14:51.698Z,1.93
2018-07-19T10:17:20.621Z,1.90
2018-07-19T10:19:49.662Z,2.03
2018-07-19T10:22:18.978Z,2.00
2018-07-19T10:24:48.103Z,2.70
2018-07-19T10:27:17.167Z,2.60
2018-07-19T10:29:46.181Z,1.80
2018-07-19T10:32:15.235Z,2.10
2018-07-19T10:34:44.431Z,1.80
2018-07-19T10:37:13.667Z,2.37
2018-07-19T10:39:42.513Z,1.90
2018-07-19T10:42:11.850Z,2.73
2018-07-19T10:44:41.066Z,2.00
2018-07-19T10:47:10.056Z,3.13
2018-07-19T10:49:39.066Z,2.53
2018-07-19T10:52:08.344Z,2.30
2018-07-19T10:54:37.491Z,3.10
2018-07-19T10:57:06.627Z,2.37
2018-07-19T10:59:35.739Z,2.27
2018-07-19T11:02:04.896Z,2.40
2018-07-19T11:04:33.966Z,2.50
2018-07-19T11:07:03.318Z,2.67
2018-07-19T11:09:32.504Z,3.73
2018-07-19T11:12:01.556Z,2.47
2018-07-19T11:14:30.774Z,4.43
2018-07-19T11:16:59.638Z,2.60
2018-07-19T11:19:28.924Z,3.07
2018-07-19T11:21:57.895Z,2.50
2018-07-19T11:24:27.042Z,2.77
2018-07-19T11:26:56.252Z,2.77
2018-07-19T11:29:25.122Z,2.80
2018-07-19T11:31:54.002Z,2.97
2018-07-19T11:34:23.285Z,4.87
2018-07-19T11:36:52.350Z,2.60
2018-07-19T11:39:21.499Z,2.77
2018-07-19T11:41:50.574Z,2.60
2018-07-19T11:44:19.826Z,2.87
2018-07-19T11:46:48.566Z,3.93
2018-07-19T11:49:17.791Z,3.20
2018-07-19T11:51:47.249Z,3.07
2018-07-19T11:54:16.986Z,2.97
2018-07-19T11:56:46.122Z,3.23
2018-07-19T11:59:15.211Z,2.57
2018-07-19T12:01:44.358Z,2.60
2018-07-19T12:04:13.518Z,2.60
2018-07-19T12:06:42.782Z,2.80
2018-07-19T12:09:12.283Z,2.20
2018-07-19T12:11:41.356Z,2.37
2018-07-19T12:14:10.244Z,1.97
2018-07-19T12:16:39.428Z,2.40
2018-07-19T12:19:08.507Z,2.40
2018-07-19T12:21:37.430Z,2.90
2018-07-19T12:24:06.254Z,2.53
2018-07-19T12:26:35.195Z,2.40
2018-07-19T12:29:04.278Z,2.63
2018-07-19T12:31:33.482Z,2.50
2018-07-19T12:34:02.570Z,2.60
2018-07-19T12:36:31.478Z,2.37
2018-07-19T12:39:00.268Z,2.67
2018-07-19T12:41:29.332Z,2.87
2018-07-19T12:43:58.461Z,2.93
2018-07-19T12:46:27.624Z,2.83
2018-07-19T12:48:57.005Z,3.07
2018-07-19T12:51:25.882Z,3.27
2018-07-19T12:53:54.809Z,3.50
2018-07-19T12:56:24.116Z,3.37
2018-07-19T12:58:53.263Z,3.50
2018-07-19T13:01:22.467Z,3.60
2018-07-19T13:03:51.714Z,2.70
2018-07-19T13:06:20.909Z,2.77
2018-07-19T13:08:49.946Z,3.23
2018-07-19T13:11:18.898Z,3.03
2018-07-19T13:13:48.260Z,3.17
2018-07-19T13:16:17.163Z,3.23
2018-07-19T13:18:46.370Z,3.10
2018-07-19T13:21:15.398Z,3.53
2018-07-19T13:23:44.561Z,3.40
2018-07-19T13:26:13.411Z,3.40
2018-07-19T13:28:42.586Z,3.90
2018-07-19T13:31:11.750Z,3.70
2018-07-19T13:33:40.986Z,3.60
2018-07-19T13:36:10.133Z,3.77
2018-07-19T13:38:39.380Z,4.03
2018-07-19T13:41:08.370Z,4.67
2018-07-19T13:43:37.639Z,4.03
2018-07-19T13:46:07.068Z,3.80
2018-07-19T13:48:36.038Z,3.90
2018-07-19T13:51:05.320Z,3.73
2018-07-19T13:53:52.047Z,3.77
2018-07-19T13:56:21.029Z,3.80
2018-07-19T13:58:50.297Z,5.20
2018-07-19T14:01:19.078Z,4.17
2018-07-19T14:03:47.822Z,3.30
2018-07-19T14:06:16.727Z,4.67
2018-07-19T14:08:45.752Z,3.83
2018-07-19T14:11:15.010Z,4.63
2018-07-19T14:13:44.276Z,3.87
2018-07-19T14:16:13.507Z,4.00
2018-07-19T14:18:42.658Z,4.00
2018-07-19T14:21:11.973Z,3.90
2018-07-19T14:23:41.081Z,3.70
2018-07-19T14:26:10.204Z,4.27
2018-07-19T14:28:39.440Z,3.77
2018-07-19T14:31:09.304Z,3.83
2018-07-19T14:33:38.558Z,3.90
2018-07-19T14:36:07.579Z,3.70
2018-07-19T14:38:36.827Z,4.20
2018-07-19T14:41:05.905Z,4.00
2018-07-19T14:43:35.120Z,3.97
2018-07-19T14:46:03.890Z,4.40
2018-07-19T14:48:33.065Z,4.00
2018-07-19T14:51:02.199Z,4.60
2018-07-19T14:53:31.483Z,3.97
2018-07-19T14:56:00.563Z,4.30
2018-07-19T14:58:29.438Z,4.10
2018-07-19T15:00:58.231Z,4.43
2018-07-19T15:03:27.131Z,5.10
2018-07-19T15:05:56.182Z,4.70
2018-07-19T15:08:25.149Z,4.97
2018-07-19T15:10:53.994Z,4.50
2018-07-19T15:13:22.870Z,4.20
2018-07-19T15:15:52.016Z,4.37
2018-07-19T15:18:20.835Z,4.53
2018-07-19T15:20:50.102Z,4.67
2018-07-19T15:23:19.311Z,6.23
2018-07-19T15:25:48.428Z,4.83
2018-07-19T15:28:17.622Z,5.00
2018-07-19T15:30:46.548Z,5.00
2018-07-19T15:33:15.584Z,4.30
2018-07-19T15:35:44.385Z,4.63
2018-07-19T15:38:13.511Z,4.57
2018-07-19T15:40:42.743Z,5.30
2018-07-19T15:43:12.210Z,4.53
2018-07-19T15:45:41.118Z,4.63
2018-07-19T15:48:10.668Z,4.70
2018-07-19T15:50:40.413Z,4.80
2018-07-19T15:53:09.689Z,3.90
2018-07-19T15:55:38.863Z,4.20
2018-07-19T15:58:07.961Z,4.13
2018-07-19T16:00:37.187Z,3.93
2018-07-19T16:03:06.183Z,4.10
2018-07-19T16:05:35.350Z,4.17
2018-07-19T16:08:04.558Z,3.73
2018-07-19T16:10:33.954Z,4.00
2018-07-19T16:13:03.298Z,3.43
2018-07-19T16:15:32.253Z,3.67
2018-07-19T16:18:01.431Z,4.00
2018-07-19T16:20:30.499Z,3.63
2018-07-19T16:22:59.627Z,3.90
2018-07-19T16:25:28.963Z,4.97
2018-07-19T16:27:58.117Z,3.87
2018-07-19T16:30:27.462Z,5.60
2018-07-19T16:32:56.765Z,4.20
2018-07-19T16:35:25.494Z,3.83
2018-07-19T16:37:54.836Z,3.33
2018-07-19T16:40:24.099Z,3.43
2018-07-19T16:42:53.410Z,3.63
2018-07-19T16:45:22.676Z,3.87
2018-07-19T16:47:51.989Z,4.43
2018-07-19T16:50:21.307Z,4.30
2018-07-19T16:52:50.384Z,4.13
2018-07-19T16:55:19.622Z,4.10
2018-07-19T16:57:48.649Z,5.83
2018-07-19T17:00:17.734Z,3.73
2018-07-19T17:02:46.809Z,4.17
2018-07-19T17:05:16.099Z,3.70
2018-07-19T17:07:44.850Z,4.17
2018-07-19T17:10:13.850Z,4.03
2018-07-19T17:12:43.074Z,4.80
2018-07-19T17:15:12.229Z,4.17
2018-07-19T17:17:40.969Z,5.43
2018-07-19T17:20:10.166Z,4.50
2018-07-19T17:22:38.920Z,4.47
2018-07-19T17:25:07.909Z,4.50
2018-07-19T17:27:36.910Z,4.77
2018-07-19T17:30:06.695Z,4.37
2018-07-19T17:32:35.892Z,5.23
2018-07-19T17:35:05.138Z,5.00
2018-07-19T17:37:33.882Z,5.33
2018-07-19T17:40:03.154Z,5.23
2018-07-19T17:42:32.404Z,4.70
2018-07-19T17:45:01.170Z,5.70
2018-07-19T17:47:30.296Z,5.40
2018-07-19T17:49:59.443Z,5.80
2018-07-19T17:52:28.699Z,6.10
2018-07-19T17:54:57.783Z,5.70
2018-07-19T17:57:26.650Z,6.20
2018-07-19T17:59:55.726Z,6.13
2018-07-19T18:02:24.906Z,6.53
2018-07-19T18:04:53.995Z,6.60
2018-07-19T18:07:23.135Z,7.27
2018-07-19T18:09:52.251Z,8.47
2018-07-19T18:12:21.442Z,7.30
2018-07-19T18:14:50.539Z,7.40
2018-07-19T18:17:19.351Z,6.70
2018-07-19T18:19:48.335Z,6.73
2018-07-19T18:22:17.415Z,6.67
2018-07-19T18:24:46.488Z,7.60
2018-07-19T18:27:16.022Z,7.10
2018-07-19T18:29:45.763Z,8.20
2018-07-19T18:32:14.488Z,6.40
2018-07-19T18:34:43.335Z,7.03
2018-07-19T18:37:12.358Z,6.70
2018-07-19T18:39:41.966Z,6.83
2018-07-19T18:42:11.126Z,7.60
2018-07-19T18:44:40.478Z,6.53
2018-07-19T18:47:09.819Z,6.17
2018-07-19T18:49:38.788Z,6.90
2018-07-19T18:52:07.988Z,7.67
2018-07-19T18:54:36.776Z,6.63
2018-07-19T18:57:05.901Z,5.90
2018-07-19T18:59:34.787Z,7.10
2018-07-19T19:02:04.107Z,7.43
2018-07-19T19:04:33.431Z,6.93
2018-07-19T19:07:02.738Z,6.07
2018-07-19T19:09:31.955Z,6.83
2018-07-19T19:12:00.831Z,6.43
2018-07-19T19:14:30.026Z,7.33
2018-07-19T19:16:59.122Z,7.33
2018-07-19T19:19:28.154Z,6.73
2018-07-19T19:21:57.493Z,7.80
2018-07-19T19:24:26.821Z,7.77
2018-07-19T19:26:55.956Z,7.90
2018-07-19T19:29:25.063Z,7.57
2018-07-19T19:31:54.234Z,7.50
2018-07-19T19:34:23.412Z,7.73
2018-07-19T19:36:52.644Z,7.23
2018-07-19T19:39:21.767Z,7.87
2018-07-19T19:41:50.950Z,8.47
2018-07-19T19:44:19.692Z,7.70
2018-07-19T19:46:48.604Z,8.30
2018-07-19T19:49:17.758Z,9.03
2018-07-19T19:51:46.798Z,8.57
2018-07-19T19:54:16.045Z,8.87
2018-07-19T19:56:45.268Z,8.30
2018-07-19T19:59:14.345Z,8.67
2018-07-19T20:01:43.441Z,8.10
2018-07-19T20:04:12.327Z,8.63
2018-07-19T20:06:42.207Z,7.80
2018-07-19T20:09:12.403Z,6.47
2018-07-19T20:11:41.504Z,5.80
2018-07-19T20:14:10.671Z,5.87
2018-07-19T20:16:39.414Z,5.27
2018-07-19T20:19:08.421Z,5.53
2018-07-19T20:21:37.634Z,5.00
2018-07-19T20:24:06.741Z,5.13
2018-07-19T20:26:35.762Z,5.63
2018-07-19T20:29:05.102Z,4.93
2018-07-19T20:31:34.273Z,6.43
2018-07-19T20:34:03.598Z,4.83
2018-07-19T20:36:32.750Z,4.80
2018-07-19T20:39:02.070Z,5.00
2018-07-19T20:41:31.239Z,5.40
2018-07-19T20:44:00.131Z,4.60
2018-07-19T20:46:29.174Z,4.60
2018-07-19T20:48:58.486Z,5.13
2018-07-19T20:51:27.620Z,5.00
2018-07-19T20:53:56.806Z,5.00
2018-07-19T20:56:26.055Z,4.90
2018-07-19T20:58:54.746Z,4.70
2018-07-19T21:01:23.914Z,4.83
2018-07-19T21:03:52.998Z,4.40
2018-07-19T21:06:22.235Z,5.13
2018-07-19T21:08:51.485Z,4.93
2018-07-19T21:11:20.527Z,4.90
2018-07-19T21:13:49.675Z,5.20
2018-07-19T21:16:18.514Z,4.40
2018-07-19T21:18:47.650Z,4.33
2018-07-19T21:21:16.885Z,4.67
2018-07-19T21:23:45.704Z,4.70
2018-07-19T21:26:14.744Z,4.77
2018-07-19T21:28:43.835Z,4.50
2018-07-19T21:31:13.060Z,4.83
2018-07-19T21:33:42.042Z,5.00
2018-07-19T21:36:10.990Z,5.40
2018-07-19T21:38:40.032Z,5.40
2018-07-19T21:41:08.951Z,5.23
2018-07-19T21:43:38.068Z,5.73
2018-07-19T21:46:07.181Z,5.97
2018-07-19T21:48:36.488Z,6.10
2018-07-19T21:51:05.388Z,6.13
2018-07-19T21:53:34.498Z,6.93
2018-07-19T21:56:03.474Z,6.77
2018-07-19T21:58:32.805Z,6.83
2018-07-19T22:01:06.957Z,7.00
2018-07-19T22:03:36.065Z,7.40
2018-07-19T22:06:05.208Z,7.40
2018-07-19T22:08:34.395Z,7.90
2018-07-19T22:11:03.699Z,8.30
2018-07-19T22:13:32.435Z,8.03
2018-07-19T22:16:01.762Z,8.10
2018-07-19T22:18:30.663Z,8.57
2018-07-19T22:20:59.960Z,7.77
2018-07-19T22:23:29.134Z,7.90
2018-07-19T22:25:58.203Z,8.77
2018-07-19T22:28:27.039Z,7.60
2018-07-19T22:30:55.879Z,8.00
2018-07-19T22:33:24.875Z,7.57
2018-07-19T22:35:53.821Z,7.40
2018-07-19T22:38:22.867Z,8.23
2018-07-19T22:40:52.191Z,7.37
2018-07-19T22:43:21.373Z,7.73
2018-07-19T22:45:50.458Z,7.60
2018-07-19T22:48:19.295Z,7.80
2018-07-19T22:50:48.434Z,8.13
2018-07-19T22:53:17.656Z,7.70
2018-07-19T22:55:46.879Z,8.00
2018-07-19T22:58:16.031Z,7.33
2018-07-19T23:00:45.375Z,7.07
2018-07-19T23:03:14.518Z,6.80
2018-07-19T23:05:43.770Z,6.53
2018-07-19T23:08:12.618Z,6.43
2018-07-19T23:10:41.816Z,6.20
2018-07-19T23:13:10.619Z,6.20
2018-07-19T23:15:39.694Z,6.00
2018-07-19T23:18:08.848Z,5.67
2018-07-19T23:20:38.106Z,5.60
2018-07-19T23:23:07.376Z,5.50
2018-07-19T23:25:36.196Z,5.80
2018-07-19T23:28:05.389Z,5.57
2018-07-19T23:30:35.902Z,5.90
2018-07-19T23:33:05.211Z,5.90
2018-07-19T23:35:37.894Z,6.13
2018-07-19T23:38:10.316Z,6.47
2018-07-19T23:40:42.223Z,6.73
2018-07-19T23:43:15.256Z,6.67
2018-07-19T23:45:50.647Z,6.63
2018-07-19T23:48:20.049Z,7.37
2018-07-19T23:50:49.231Z,7.43
2018-07-19T23:53:18.078Z,7.90
2018-07-19T23:55:47.193Z,7.50
2018-07-19T23:58:15.922Z,8.17
